Time;durP1;ratioP1;P1;durP2;ratioP2;P2;SDS_P1;SDS_P2;PMS_P1;PMS_P2;Temp;Humidity;BMP_temperature;BMP_pressure;BME280_temperature;BME280_humidity;BME280_pressure;Samples;Min_cycle;Max_cycle;Signal;HPM_P1;HPM_P2
2023/08/12 00:00:19;;;;;;;3.23;3.03;;;23.10;49.90;;;;;;5040544;28;20475;-78
2023/08/12 00:02:45;;;;;;;3.33;3.10;;;23.00;49.80;;;;;;5006616;28;20496;-79
2023/08/12 00:05:12;;;;;;;3.00;2.80;;;23.00;49.80;;;;;;5036603;28;20528;-79
2023/08/12 00:07:41;;;;;;;2.90;2.80;;;23.00;49.80;;;;;;5044708;28;21036;-79
2023/08/12 00:10:07;;;;;;;3.33;3.13;;;23.00;49.80;;;;;;5024398;28;20466;-79
2023/08/12 00:12:36;;;;;;;3.03;2.90;;;23.00;49.80;;;;;;5033368;28;20453;-78
2023/08/12 00:15:05;;;;;;;3.20;3.00;;;23.00;49.90;;;;;;5039964;28;20463;-78
2023/08/12 00:17:30;;;;;;;3.17;2.97;;;23.00;49.90;;;;;;5045625;28;21100;-78
2023/08/12 00:19:56;;;;;;;3.07;2.87;;;23.00;49.90;;;;;;5039615;28;20486;-78
2023/08/12 00:22:22;;;;;;;3.07;2.87;;;23.00;49.90;;;;;;5041037;28;20226;-78
2023/08/12 00:24:48;;;;;;;2.70;2.60;;;23.00;49.90;;;;;;5041767;28;20611;-78
2023/08/12 00:27:13;;;;;;;3.00;2.80;;;23.00;50.00;;;;;;5026966;28;20213;-78
2023/08/12 00:29:39;;;;;;;3.17;2.97;;;23.00;49.90;;;;;;5023153;28;21114;-78
2023/08/12 00:32:05;;;;;;;3.30;3.10;;;23.00;49.90;;;;;;5042604;28;20241;-79
2023/08/12 00:34:31;;;;;;;3.03;2.83;;;23.00;49.90;;;;;;5047033;28;20241;-85
2023/08/12 00:36:56;;;;;;;3.60;3.30;;;23.00;49.90;;;;;;5001325;28;20467;-85
2023/08/12 00:39:22;;;;;;;3.20;3.10;;;23.00;50.00;;;;;;5028186;28;20226;-82
2023/08/12 00:41:48;;;;;;;3.27;3.07;;;23.00;49.90;;;;;;5013279;28;20222;-84
2023/08/12 00:44:14;;;;;;;2.73;2.53;;;23.00;49.90;;;;;;5045583;28;20218;-82
2023/08/12 00:46:41;;;;;;;2.40;2.30;;;23.00;50.00;;;;;;5041220;28;20249;-85
2023/08/12 00:49:07;;;;;;;3.00;2.80;;;23.00;50.10;;;;;;5044514;28;20625;-80
2023/08/12 00:51:33;;;;;;;3.10;2.90;;;23.00;50.00;;;;;;5043620;28;20451;-85
2023/08/12 00:53:59;;;;;;;2.60;2.50;;;23.00;50.00;;;;;;5029220;28;20465;-83
2023/08/12 00:56:27;;;;;;;2.40;2.30;;;23.00;50.00;;;;;;5024246;28;20313;-82
2023/08/12 00:58:53;;;;;;;2.63;2.53;;;23.00;50.00;;;;;;5045639;28;21168;-85
2023/08/12 01:01:19;;;;;;;2.70;2.60;;;23.00;50.00;;;;;;5040234;28;20475;-84
2023/08/12 01:03:45;;;;;;;2.57;2.47;;;23.00;50.00;;;;;;5039188;28;21100;-83
2023/08/12 01:06:11;;;;;;;2.10;2.00;;;23.00;50.00;;;;;;5043826;28;20471;-83
2023/08/12 01:08:37;;;;;;;3.20;3.00;;;23.00;50.00;;;;;;5045710;28;20217;-84
2023/08/12 01:11:16;;;;;;;2.80;2.70;;;23.00;50.00;;;;;;5039383;28;21901;-83
2023/08/12 01:13:52;;;;;;;2.90;2.70;;;23.00;50.00;;;;;;5043298;28;20218;-83
2023/08/12 01:16:20;;;;;;;2.63;2.53;;;23.00;50.10;;;;;;5037667;28;20605;-85
2023/08/12 01:18:47;;;;;;;2.83;2.73;;;23.00;50.10;;;;;;5039533;28;20455;-83
2023/08/12 01:21:18;;;;;;;2.80;2.60;;;23.00;50.00;;;;;;5043517;28;20471;-83
2023/08/12 01:23:45;;;;;;;2.97;2.87;;;23.00;50.10;;;;;;5042088;28;20452;-78
2023/08/12 01:26:11;;;;;;;2.83;2.73;;;23.00;50.00;;;;;;5024122;28;20502;-78
2023/08/12 01:28:36;;;;;;;3.30;3.10;;;23.00;50.00;;;;;;5042118;28;20791;-78
2023/08/12 01:31:20;;;;;;;2.80;2.60;;;23.00;50.00;;;;;;5040002;28;20689;-78
2023/08/12 01:34:15;;;;;;;2.90;2.80;;;23.00;50.10;;;;;;5040276;28;20284;-78
2023/08/12 01:36:45;;;;;;;2.87;2.70;;;23.00;50.00;;;;;;5022299;28;20506;-78
2023/08/12 01:39:11;;;;;;;2.57;2.47;;;23.00;50.10;;;;;;5022317;28;20451;-77
2023/08/12 01:41:37;;;;;;;2.43;2.33;;;23.00;50.10;;;;;;5021390;28;20466;-74
2023/08/12 01:44:04;;;;;;;2.50;2.40;;;23.00;50.10;;;;;;5043011;28;20439;-74
2023/08/12 01:46:31;;;;;;;2.50;2.40;;;23.00;50.10;;;;;;5019423;28;20490;-74
2023/08/12 01:48:56;;;;;;;2.90;2.70;;;23.00;50.10;;;;;;5039146;28;20470;-73
2023/08/12 01:51:22;;;;;;;2.70;2.60;;;23.00;50.10;;;;;;5020316;28;20475;-74
2023/08/12 01:53:47;;;;;;;2.70;2.60;;;23.00;50.10;;;;;;5039529;28;20225;-73
2023/08/12 01:56:13;;;;;;;2.80;2.70;;;23.00;50.20;;;;;;5041731;28;20240;-76
2023/08/12 01:58:38;;;;;;;2.37;2.27;;;23.00;50.10;;;;;;5045885;28;20222;-72
2023/08/12 02:01:04;;;;;;;2.33;2.23;;;23.00;50.10;;;;;;5041252;28;20238;-73
2023/08/12 02:03:29;;;;;;;2.50;2.40;;;23.00;50.10;;;;;;5023605;28;20310;-74
2023/08/12 02:05:55;;;;;;;2.33;2.23;;;23.00;50.10;;;;;;5038409;28;20229;-73
2023/08/12 02:08:21;;;;;;;2.73;2.63;;;23.00;50.20;;;;;;5020331;28;21194;-73
2023/08/12 02:10:46;;;;;;;2.30;2.20;;;23.00;50.10;;;;;;5036356;28;20292;-77
2023/08/12 02:13:11;;;;;;;2.33;2.23;;;23.00;50.10;;;;;;5042390;28;20271;-74
2023/08/12 02:15:37;;;;;;;2.63;2.53;;;23.00;50.10;;;;;;5040025;28;20708;-74
2023/08/12 02:18:03;;;;;;;2.37;2.27;;;23.00;50.20;;;;;;5025312;28;20214;-73
2023/08/12 02:20:28;;;;;;;2.57;2.37;;;23.00;50.10;;;;;;5041121;28;20709;-74
2023/08/12 02:22:54;;;;;;;2.43;2.33;;;23.00;50.20;;;;;;5042479;28;20229;-75
2023/08/12 02:25:19;;;;;;;2.50;2.40;;;23.00;50.20;;;;;;5037927;28;20649;-75
2023/08/12 02:27:45;;;;;;;2.50;2.40;;;23.00;50.20;;;;;;5037716;28;20226;-74
2023/08/12 02:30:11;;;;;;;3.10;2.90;;;23.00;50.20;;;;;;5035789;28;20215;-77
2023/08/12 02:32:37;;;;;;;2.57;2.40;;;23.00;50.20;;;;;;5017293;28;20704;-74
2023/08/12 02:35:02;;;;;;;2.47;2.37;;;23.00;50.20;;;;;;5023845;28;20479;-74
2023/08/12 02:37:28;;;;;;;2.70;2.60;;;23.00;50.20;;;;;;5039577;28;20261;-73
2023/08/12 02:39:54;;;;;;;2.30;2.20;;;23.00;51.00;;;;;;5037710;28;20267;-76
2023/08/12 02:42:19;;;;;;;2.80;2.60;;;23.00;50.20;;;;;;5020336;28;20225;-74
2023/08/12 02:44:45;;;;;;;2.70;2.60;;;23.00;50.20;;;;;;5023712;28;20304;-75
2023/08/12 02:47:10;;;;;;;2.10;2.00;;;23.00;50.20;;;;;;5038470;28;20244;-74
2023/08/12 02:49:36;;;;;;;2.53;2.33;;;23.00;50.20;;;;;;5039305;28;20419;-74
2023/08/12 02:52:02;;;;;;;2.50;2.40;;;23.00;50.30;;;;;;5039072;28;20245;-84
2023/08/12 02:54:28;;;;;;;2.80;2.60;;;23.00;50.20;;;;;;5041207;28;20604;-84
2023/08/12 02:56:53;;;;;;;2.47;2.27;;;23.00;50.20;;;;;;5036117;28;20459;-85
2023/08/12 02:59:19;;;;;;;2.30;2.20;;;23.00;50.30;;;;;;5022978;28;20218;-82
2023/08/12 03:01:45;;;;;;;2.67;2.57;;;23.00;50.30;;;;;;5034193;28;20248;-83
2023/08/12 03:04:10;;;;;;;2.50;2.40;;;23.00;50.30;;;;;;5040729;28;20498;-85
2023/08/12 03:06:36;;;;;;;3.40;3.03;;;23.00;50.20;;;;;;5037976;28;20613;-75
2023/08/12 03:09:02;;;;;;;2.30;2.20;;;23.00;50.30;;;;;;5039822;28;20663;-82
2023/08/12 03:11:28;;;;;;;2.20;2.10;;;23.00;50.20;;;;;;5034089;28;20218;-84
2023/08/12 03:13:53;;;;;;;2.43;2.33;;;23.00;50.30;;;;;;5021733;28;20260;-80
2023/08/12 03:16:19;;;;;;;2.50;2.40;;;23.00;50.20;;;;;;5037201;28;20224;-85
2023/08/12 03:18:45;;;;;;;2.20;2.10;;;23.00;50.20;;;;;;5020462;28;20210;-77
2023/08/12 03:21:11;;;;;;;2.10;2.00;;;23.00;50.30;;;;;;5035639;28;20239;-82
2023/08/12 03:23:37;;;;;;;2.83;2.73;;;23.00;50.30;;;;;;5039676;28;20470;-81
2023/08/12 03:26:03;;;;;;;2.40;2.20;;;23.00;50.30;;;;;;5021300;28;20677;-85
2023/08/12 03:28:32;;;;;;;2.93;2.83;;;23.00;50.30;;;;;;5039023;28;20983;-81
2023/08/12 03:30:57;;;;;;;2.33;2.23;;;23.00;50.30;;;;;;5017395;28;20502;-83
2023/08/12 03:33:23;;;;;;;2.40;2.30;;;23.00;50.30;;;;;;5016571;28;20879;-85
2023/08/12 03:35:49;;;;;;;2.20;2.10;;;23.00;50.40;;;;;;5036920;28;20222;-81
2023/08/12 03:38:15;;;;;;;2.20;2.10;;;23.00;50.30;;;;;;5021918;28;20226;-77
2023/08/12 03:40:42;;;;;;;2.50;2.40;;;23.00;50.30;;;;;;5037300;28;20485;-84
2023/08/12 03:43:07;;;;;;;2.20;2.10;;;23.00;50.30;;;;;;5033373;28;20993;-78
2023/08/12 03:45:39;;;;;;;2.63;2.53;;;23.00;50.30;;;;;;5018302;28;20462;-79
2023/08/12 03:48:05;;;;;;;2.60;2.40;;;23.00;50.40;;;;;;5037719;28;20226;-79
2023/08/12 03:50:34;;;;;;;2.50;2.30;;;23.00;50.30;;;;;;5034736;28;20443;-78
2023/08/12 03:53:00;;;;;;;2.50;2.40;;;23.00;50.40;;;;;;5037080;28;20459;-79
2023/08/12 03:55:25;;;;;;;2.40;2.20;;;23.00;50.40;;;;;;5033603;28;20474;-78
2023/08/12 03:57:51;;;;;;;2.27;2.17;;;23.00;50.40;;;;;;5019978;28;20249;-78
2023/08/12 04:00:17;;;;;;;2.40;2.30;;;23.00;50.40;;;;;;5037609;28;20225;-78
2023/08/12 04:02:43;;;;;;;2.23;2.13;;;23.00;50.40;;;;;;5034992;28;20226;-77
2023/08/12 04:05:08;;;;;;;1.90;1.80;;;23.00;50.40;;;;;;5036213;28;20323;-77
2023/08/12 04:07:36;;;;;;;2.30;2.20;;;23.00;50.50;;;;;;5039356;28;20218;-78
2023/08/12 04:10:02;;;;;;;2.30;2.10;;;23.00;50.40;;;;;;5038346;28;20279;-78
2023/08/12 04:12:27;;;;;;;2.50;2.40;;;23.00;50.40;;;;;;5039676;28;20455;-77
2023/08/12 04:14:53;;;;;;;2.77;2.57;;;23.00;50.40;;;;;;5039330;28;20808;-77
2023/08/12 04:17:18;;;;;;;2.37;2.27;;;23.00;50.40;;;;;;5042129;28;20226;-78
2023/08/12 04:19:44;;;;;;;2.73;2.53;;;23.00;50.50;;;;;;5038716;28;20237;-77
2023/08/12 04:22:09;;;;;;;2.83;2.60;;;23.00;50.40;;;;;;5039602;28;20602;-77
2023/08/12 04:24:35;;;;;;;2.17;2.07;;;23.00;50.50;;;;;;5038382;28;20225;-77
2023/08/12 04:27:00;;;;;;;2.40;2.30;;;23.00;50.50;;;;;;5039220;28;20234;-78
2023/08/12 04:29:26;;;;;;;2.30;2.20;;;23.00;50.50;;;;;;5039088;28;20245;-78
2023/08/12 04:31:52;;;;;;;2.27;2.17;;;23.00;50.40;;;;;;5019100;28;20693;-76
2023/08/12 04:34:18;;;;;;;3.60;2.30;;;23.00;50.40;;;;;;5037563;28;20222;-77
2023/08/12 04:36:44;;;;;;;2.20;2.10;;;23.00;50.40;;;;;;5039250;28;20505;-78
2023/08/12 04:39:10;;;;;;;2.33;2.23;;;23.00;50.50;;;;;;5039961;28;20321;-78
2023/08/12 04:41:36;;;;;;;2.30;2.20;;;23.00;50.40;;;;;;5039206;28;20313;-78
2023/08/12 04:44:02;;;;;;;2.10;2.00;;;23.00;50.40;;;;;;5023859;28;20464;-78
2023/08/12 04:46:27;;;;;;;2.43;2.33;;;23.00;50.40;;;;;;5039506;28;20505;-78
2023/08/12 04:48:53;;;;;;;2.00;1.90;;;23.10;50.50;;;;;;5039652;28;20237;-78
2023/08/12 04:51:19;;;;;;;2.10;2.00;;;23.10;50.50;;;;;;5039628;28;20244;-78
2023/08/12 04:53:44;;;;;;;2.17;2.07;;;23.10;50.50;;;;;;5040250;28;20217;-79
2023/08/12 04:56:10;;;;;;;2.20;2.10;;;23.10;50.50;;;;;;5039260;28;20717;-78
2023/08/12 04:58:35;;;;;;;3.53;2.90;;;23.10;50.50;;;;;;5043324;28;20218;-78
2023/08/12 05:01:01;;;;;;;2.20;2.10;;;23.10;50.40;;;;;;5039579;28;20598;-78
2023/08/12 05:03:27;;;;;;;2.30;2.20;;;23.10;50.40;;;;;;5036970;28;20222;-78
2023/08/12 05:05:53;;;;;;;2.27;2.17;;;23.10;50.50;;;;;;5020032;28;20697;-78
2023/08/12 05:08:19;;;;;;;2.60;2.50;;;23.10;50.40;;;;;;5022133;28;20540;-77
2023/08/12 05:10:47;;;;;;;2.17;2.07;;;23.10;50.40;;;;;;5036854;28;20252;-78
2023/08/12 05:13:13;;;;;;;2.23;2.13;;;23.10;50.40;;;;;;5021916;28;20218;-84
2023/08/12 05:15:39;;;;;;;2.60;2.50;;;23.10;50.40;;;;;;5036207;28;20463;-81
2023/08/12 05:18:05;;;;;;;2.10;2.00;;;23.10;50.50;;;;;;5042223;28;20261;-80
2023/08/12 05:20:31;;;;;;;2.10;2.00;;;23.10;50.40;;;;;;5038066;28;21017;-82
2023/08/12 05:22:56;;;;;;;2.13;2.03;;;23.10;50.40;;;;;;5021129;28;20531;-78
2023/08/12 05:25:22;;;;;;;2.60;2.47;;;23.10;50.40;;;;;;5037309;28;20246;-81
2023/08/12 05:27:47;;;;;;;2.23;2.13;;;23.10;50.40;;;;;;5026538;28;20234;-81
2023/08/12 05:30:13;;;;;;;2.10;2.00;;;23.10;50.40;;;;;;5037858;28;20230;-76
2023/08/12 05:32:39;;;;;;;2.40;2.30;;;23.10;50.40;;;;;;5039824;28;20238;-86
2023/08/12 05:35:05;;;;;;;2.40;2.30;;;23.10;50.30;;;;;;5021443;28;20265;-86
2023/08/12 05:37:30;;;;;;;2.40;2.30;;;23.10;50.30;;;;;;5022155;28;20226;-86
2023/08/12 05:39:56;;;;;;;2.40;2.30;;;23.20;50.50;;;;;;5039625;28;20264;-87
2023/08/12 05:42:21;;;;;;;3.57;2.93;;;23.10;50.40;;;;;;5022597;28;20218;-88
2023/08/12 05:44:47;;;;;;;2.00;1.90;;;23.10;50.40;;;;;;5039160;28;20224;-82
2023/08/12 05:47:12;;;;;;;2.33;2.23;;;23.20;50.50;;;;;;5020878;28;20233;-85
2023/08/12 05:49:38;;;;;;;2.47;2.37;;;23.20;50.50;;;;;;5023944;28;20305;-82
2023/08/12 05:52:04;;;;;;;2.50;2.40;;;23.20;50.50;;;;;;5035333;28;20215;-81
2023/08/12 05:54:29;;;;;;;2.70;2.60;;;23.20;50.50;;;;;;5038183;28;20284;-81
2023/08/12 05:56:55;;;;;;;2.40;2.30;;;23.20;50.50;;;;;;5017900;28;20455;-82
2023/08/12 05:59:21;;;;;;;2.23;2.13;;;23.20;50.50;;;;;;5038929;28;20222;-79
2023/08/12 06:01:47;;;;;;;2.30;2.20;;;23.20;50.50;;;;;;5019594;28;20300;-76
2023/08/12 06:04:12;;;;;;;2.80;2.70;;;23.20;50.50;;;;;;5041385;28;20693;-76
2023/08/12 06:06:38;;;;;;;2.60;2.50;;;23.20;50.50;;;;;;5034944;28;20275;-76
2023/08/12 06:09:03;;;;;;;2.33;2.23;;;23.20;50.50;;;;;;5040384;28;20281;-77
2023/08/12 06:11:29;;;;;;;2.23;2.13;;;23.20;50.50;;;;;;5038815;28;20642;-76
2023/08/12 06:13:54;;;;;;;2.37;2.27;;;23.20;50.60;;;;;;5018427;28;20226;-77
2023/08/12 06:16:20;;;;;;;2.40;2.30;;;23.20;50.50;;;;;;5039080;28;20225;-77
2023/08/12 06:18:45;;;;;;;2.37;2.27;;;23.20;50.60;;;;;;5020793;28;20252;-77
2023/08/12 06:21:11;;;;;;;2.40;2.30;;;23.20;50.50;;;;;;5037602;28;20241;-77
2023/08/12 06:23:36;;;;;;;2.50;2.30;;;23.20;50.50;;;;;;5037137;28;20244;-76
2023/08/12 06:26:02;;;;;;;2.30;2.20;;;23.20;50.50;;;;;;5038043;28;20701;-77
2023/08/12 06:28:28;;;;;;;2.27;2.17;;;23.20;50.50;;;;;;5033369;28;20226;-77
2023/08/12 06:30:53;;;;;;;2.33;2.23;;;23.20;50.50;;;;;;5016399;28;20253;-77
2023/08/12 06:33:19;;;;;;;2.40;2.30;;;23.20;50.50;;;;;;5033497;28;20213;-78
2023/08/12 06:35:44;;;;;;;2.47;2.37;;;23.20;50.50;;;;;;5035445;28;20238;-77
2023/08/12 06:38:10;;;;;;;2.60;2.50;;;23.20;50.50;;;;;;5035634;28;20760;-77
2023/08/12 06:40:37;;;;;;;2.40;2.30;;;23.20;50.60;;;;;;5034547;28;20614;-77
2023/08/12 06:43:03;;;;;;;2.30;2.20;;;23.20;50.50;;;;;;5034352;28;20218;-79
2023/08/12 06:45:29;;;;;;;3.07;2.97;;;23.20;50.50;;;;;;5019308;28;20784;-80
2023/08/12 06:47:54;;;;;;;2.50;2.40;;;23.20;50.60;;;;;;5029972;28;20224;-80
2023/08/12 06:50:20;;;;;;;2.67;2.57;;;23.20;50.50;;;;;;5035509;28;22165;-82
2023/08/12 06:52:45;;;;;;;2.50;2.30;;;23.20;50.50;;;;;;5023731;28;20229;-76
2023/08/12 06:55:11;;;;;;;2.60;2.40;;;23.20;50.60;;;;;;5040864;28;20225;-80
2023/08/12 06:57:36;;;;;;;2.80;2.60;;;23.20;50.50;;;;;;5039402;28;20217;-77
2023/08/12 07:00:03;;;;;;;7.07;2.70;;;23.20;50.50;;;;;;5039185;28;20238;-76
2023/08/12 07:02:29;;;;;;;3.47;3.27;;;23.20;50.60;;;;;;5020884;28;20229;-73
2023/08/12 07:04:55;;;;;;;2.60;2.40;;;23.20;50.50;;;;;;5042885;28;20459;-74
2023/08/12 07:07:21;;;;;;;2.87;2.67;;;23.30;50.50;;;;;;5040385;28;20544;-74
2023/08/12 07:09:46;;;;;;;4.33;2.63;;;23.30;50.50;;;;;;5038486;28;20630;-74
2023/08/12 07:12:12;;;;;;;2.30;2.20;;;23.30;50.60;;;;;;5034515;28;20218;-75
2023/08/12 07:14:37;;;;;;;2.73;2.53;;;23.30;50.60;;;;;;5035389;28;20724;-75
2023/08/12 07:17:03;;;;;;;2.83;2.60;;;23.30;50.50;;;;;;5036395;28;20230;-75
2023/08/12 07:19:28;;;;;;;2.50;2.30;;;23.30;50.60;;;;;;5017884;28;20214;-76
2023/08/12 07:21:54;;;;;;;2.70;2.50;;;23.30;50.50;;;;;;5030778;28;20214;-76
2023/08/12 07:24:19;;;;;;;2.40;2.30;;;23.20;50.50;;;;;;5031878;28;20206;-77
2023/08/12 07:26:45;;;;;;;2.50;2.30;;;23.30;50.60;;;;;;5017356;28;20252;-76
2023/08/12 07:29:11;;;;;;;2.37;2.27;;;23.30;50.60;;;;;;5036513;28;22220;-77
2023/08/12 07:31:36;;;;;;;2.83;2.50;;;23.20;50.50;;;;;;5016115;28;20244;-77
2023/08/12 07:34:02;;;;;;;2.73;2.60;;;23.30;50.60;;;;;;5033389;28;21151;-78
2023/08/12 07:36:28;;;;;;;2.47;2.37;;;23.30;50.60;;;;;;5028955;28;20576;-77
2023/08/12 07:38:53;;;;;;;3.20;2.90;;;23.30;50.60;;;;;;5013082;28;20218;-78
2023/08/12 07:41:19;;;;;;;2.40;2.20;;;23.30;50.60;;;;;;5016167;28;20272;-78
2023/08/12 07:43:44;;;;;;;2.50;2.30;;;23.30;50.60;;;;;;5037237;28;20233;-77
2023/08/12 07:46:10;;;;;;;2.20;2.10;;;23.30;50.60;;;;;;5039394;28;20352;-77
2023/08/12 07:48:36;;;;;;;2.77;2.63;;;23.30;50.60;;;;;;5036203;28;20336;-78
2023/08/12 07:51:02;;;;;;;2.80;2.60;;;23.30;50.60;;;;;;5039074;28;20340;-77
2023/08/12 07:53:27;;;;;;;2.80;2.60;;;23.30;50.60;;;;;;5041774;28;20659;-77
2023/08/12 07:55:53;;;;;;;2.40;2.30;;;23.30;50.60;;;;;;5019819;28;20681;-77
2023/08/12 07:58:18;;;;;;;2.87;2.43;;;23.30;50.70;;;;;;5024570;28;20327;-77
2023/08/12 08:00:44;;;;;;;2.60;2.50;;;23.30;50.70;;;;;;5037669;28;20229;-77
2023/08/12 08:03:10;;;;;;;2.47;2.37;;;23.30;50.60;;;;;;5023650;28;20283;-77
2023/08/12 08:05:35;;;;;;;2.77;2.57;;;23.30;50.60;;;;;;5035706;28;21715;-77
2023/08/12 08:08:01;;;;;;;2.90;2.70;;;23.30;50.70;;;;;;5034511;28;20592;-77
2023/08/12 08:10:26;;;;;;;3.17;2.97;;;23.30;50.60;;;;;;5039157;28;20230;-77
2023/08/12 08:12:53;;;;;;;2.73;2.50;;;23.30;50.60;;;;;;5022294;28;20242;-77
2023/08/12 08:15:18;;;;;;;2.43;2.33;;;23.30;50.70;;;;;;5040326;28;20566;-77
2023/08/12 08:17:44;;;;;;;2.50;2.33;;;23.30;50.70;;;;;;5023850;28;20462;-77
2023/08/12 08:20:10;;;;;;;2.47;2.37;;;23.30;50.70;;;;;;5042483;28;20508;-80
2023/08/12 08:22:36;;;;;;;2.20;2.10;;;23.30;50.70;;;;;;5017933;28;20816;-80
2023/08/12 08:25:02;;;;;;;2.70;2.50;;;23.30;50.70;;;;;;5037088;28;20466;-81
2023/08/12 08:27:27;;;;;;;2.93;2.50;;;23.30;50.70;;;;;;5038975;28;20230;-79
2023/08/12 08:29:53;;;;;;;2.40;2.30;;;23.30;50.70;;;;;;5026296;28;20221;-79
2023/08/12 08:32:19;;;;;;;2.20;2.10;;;23.30;50.80;;;;;;5043197;28;20218;-78
2023/08/12 08:34:44;;;;;;;3.30;2.43;;;23.30;50.80;;;;;;5021380;28;20233;-78
2023/08/12 08:37:10;;;;;;;4.83;2.47;;;23.30;50.80;;;;;;5041639;28;20239;-80
2023/08/12 08:39:36;;;;;;;2.53;2.33;;;23.30;50.90;;;;;;5046162;28;20217;-81
2023/08/12 08:42:04;;;;;;;2.97;2.60;;;23.30;50.90;;;;;;5031092;28;20580;-75
2023/08/12 08:44:31;;;;;;;2.30;2.20;;;23.30;51.00;;;;;;5042775;28;20679;-77
2023/08/12 08:46:58;;;;;;;2.47;2.37;;;23.30;51.00;;;;;;5020384;28;20494;-77
2023/08/12 08:49:25;;;;;;;2.17;2.07;;;23.30;51.10;;;;;;5022696;28;21075;-76
2023/08/12 08:51:52;;;;;;;2.80;2.30;;;23.30;51.10;;;;;;5039312;28;20470;-77
2023/08/12 08:54:19;;;;;;;2.40;2.10;;;23.30;51.20;;;;;;5040030;28;20808;-78
2023/08/12 08:56:45;;;;;;;2.00;1.90;;;23.30;51.20;;;;;;5019992;28;20455;-76
2023/08/12 08:59:10;;;;;;;2.20;2.10;;;23.30;51.30;;;;;;5021808;28;20447;-79
2023/08/12 09:01:37;;;;;;;1.77;1.67;;;23.30;51.30;;;;;;5041007;28;20692;-79
2023/08/12 09:04:03;;;;;;;1.70;1.60;;;23.30;51.40;;;;;;5044116;28;20677;-75
2023/08/12 09:06:30;;;;;;;2.50;1.80;;;23.30;51.50;;;;;;5022414;28;20494;-77
2023/08/12 09:08:56;;;;;;;1.87;1.77;;;23.30;51.60;;;;;;5024176;28;21021;-79
2023/08/12 09:11:21;;;;;;;1.60;1.50;;;23.30;51.60;;;;;;5022834;28;20538;-77
2023/08/12 09:13:48;;;;;;;3.40;1.50;;;23.30;51.70;;;;;;5040687;28;20218;-76
2023/08/12 09:16:15;;;;;;;2.07;1.70;;;23.30;51.70;;;;;;5022613;28;21132;-77
2023/08/12 09:18:42;;;;;;;1.60;1.50;;;23.30;51.70;;;;;;5020129;28;20548;-78
2023/08/12 09:21:09;;;;;;;1.60;1.50;;;23.30;51.70;;;;;;5036753;28;20467;-76
2023/08/12 09:23:41;;;;;;;1.60;1.50;;;23.30;51.70;;;;;;5026836;28;20867;-77
2023/08/12 09:26:20;;;;;;;1.40;1.30;;;23.30;51.80;;;;;;5038425;28;21023;-78
2023/08/12 09:28:48;;;;;;;1.60;1.50;;;23.30;51.80;;;;;;5044298;28;20890;-78
2023/08/12 09:31:24;;;;;;;1.50;1.40;;;23.30;51.80;;;;;;5022299;28;20451;-77
2023/08/12 09:33:50;;;;;;;1.63;1.53;;;23.30;51.80;;;;;;5022157;28;20985;-79
2023/08/12 09:36:16;;;;;;;1.50;1.40;;;23.30;51.90;;;;;;5034985;28;20990;-79
2023/08/12 09:38:42;;;;;;;1.50;1.40;;;23.30;51.80;;;;;;5037918;28;21008;-79
2023/08/12 09:41:08;;;;;;;1.67;1.50;;;23.30;51.80;;;;;;5015648;28;20483;-78
2023/08/12 09:43:33;;;;;;;2.23;1.50;;;23.30;51.80;;;;;;5013425;28;20222;-77
2023/08/12 09:45:59;;;;;;;1.40;1.30;;;23.30;51.80;;;;;;5026748;28;20304;-78
2023/08/12 09:48:25;;;;;;;2.70;1.90;;;23.30;51.90;;;;;;5012243;28;20226;-79
2023/08/12 09:50:53;;;;;;;1.70;1.60;;;23.30;51.80;;;;;;5014766;28;20218;-78
2023/08/12 09:53:19;;;;;;;2.03;1.50;;;23.30;52.00;;;;;;5030554;28;20985;-78
2023/08/12 09:55:47;;;;;;;1.60;1.50;;;23.30;52.00;;;;;;5010288;28;20495;-75
2023/08/12 09:58:17;;;;;;;1.97;1.87;;;23.30;51.90;;;;;;5036246;28;20828;-78
2023/08/12 10:00:43;;;;;;;1.60;1.50;;;23.30;52.00;;;;;;5032703;28;20467;-78
2023/08/12 10:03:10;;;;;;;1.87;1.50;;;23.30;51.90;;;;;;5030705;28;20838;-78
2023/08/12 10:05:37;;;;;;;1.93;1.60;;;23.30;52.00;;;;;;5032145;28;20479;-78
2023/08/12 10:08:04;;;;;;;1.40;1.30;;;23.30;52.00;;;;;;5033742;28;20581;-78
2023/08/12 10:10:32;;;;;;;1.77;1.60;;;23.30;52.00;;;;;;5018317;28;20455;-76
2023/08/12 10:12:59;;;;;;;1.37;1.27;;;23.30;52.10;;;;;;5037329;28;21084;-76
2023/08/12 10:15:25;;;;;;;2.47;1.50;;;23.30;52.10;;;;;;5037467;28;20459;-76
2023/08/12 10:17:51;;;;;;;1.63;1.53;;;23.30;52.10;;;;;;5033176;28;21046;-77
2023/08/12 10:20:23;;;;;;;1.40;1.30;;;23.30;52.80;;;;;;5014357;28;20483;-79
2023/08/12 10:22:49;;;;;;;1.70;1.60;;;23.30;52.10;;;;;;5020580;28;20487;-76
2023/08/12 10:25:15;;;;;;;1.60;1.50;;;23.30;52.10;;;;;;5018411;28;20490;-76
2023/08/12 10:27:41;;;;;;;1.40;1.30;;;23.30;52.10;;;;;;5037313;28;20210;-75
2023/08/12 10:30:10;;;;;;;1.50;1.40;;;23.30;52.20;;;;;;5034431;28;20467;-76
2023/08/12 10:32:37;;;;;;;1.60;1.50;;;23.30;52.20;;;;;;5034317;28;20455;-76
2023/08/12 10:35:03;;;;;;;1.60;1.50;;;23.30;52.20;;;;;;5018241;28;20509;-76
2023/08/12 10:37:33;;;;;;;1.80;1.40;;;23.30;52.20;;;;;;5034565;28;20534;-77
2023/08/12 10:39:58;;;;;;;1.73;1.63;;;23.30;52.20;;;;;;5013504;28;20479;-76
2023/08/12 10:42:41;;;;;;;2.13;1.60;;;23.30;52.20;;;;;;5030029;28;20451;-74
2023/08/12 10:45:06;;;;;;;5.63;1.90;;;23.30;52.30;;;;;;5015211;28;20214;-73
2023/08/12 10:47:34;;;;;;;1.50;1.20;;;23.20;52.00;;;;;;5035972;28;20459;-73
2023/08/12 10:50:01;;;;;;;1.40;1.30;;;23.30;52.10;;;;;;5043128;28;20237;-76
2023/08/12 10:52:28;;;;;;;2.07;1.40;;;23.30;52.00;;;;;;5040187;28;21043;-77
2023/08/12 10:54:54;;;;;;;1.43;1.33;;;23.40;52.00;;;;;;5037808;28;22874;-77
2023/08/12 10:57:38;;;;;;;1.13;1.03;;;23.40;51.80;;;;;;5034260;28;20459;-78
2023/08/12 11:00:05;;;;;;;1.53;1.20;;;23.50;51.80;;;;;;5035850;28;20254;-81
2023/08/12 11:02:32;;;;;;;1.30;1.10;;;23.40;51.90;;;;;;5024019;28;20447;-76
2023/08/12 11:05:03;;;;;;;1.20;1.10;;;23.40;51.90;;;;;;5021489;28;20443;-77
2023/08/12 11:07:34;;;;;;;1.10;1.00;;;23.40;52.00;;;;;;5023085;28;20933;-77
2023/08/12 11:10:09;;;;;;;0.90;0.90;;;23.40;52.10;;;;;;5040133;28;20530;-79
2023/08/12 11:12:35;;;;;;;4.40;1.10;;;23.40;52.10;;;;;;5016640;28;20458;-73
2023/08/12 11:15:03;;;;;;;1.20;1.10;;;23.30;52.20;;;;;;5036046;28;20811;-75
2023/08/12 11:17:34;;;;;;;2.47;1.20;;;23.30;52.20;;;;;;5037930;28;20966;-71
2023/08/12 11:20:01;;;;;;;1.43;1.33;;;23.40;52.30;;;;;;5025565;28;20471;-74
2023/08/12 11:22:27;;;;;;;1.43;1.20;;;23.40;52.30;;;;;;5045312;28;20984;-73
2023/08/12 11:24:53;;;;;;;3.30;1.27;;;23.40;52.30;;;;;;5042471;28;20600;-73
2023/08/12 11:27:19;;;;;;;1.20;1.10;;;23.40;52.30;;;;;;5041916;28;20615;-73
2023/08/12 11:29:44;;;;;;;1.20;1.10;;;23.30;52.20;;;;;;5026199;28;20451;-76
2023/08/12 11:32:11;;;;;;;1.00;0.90;;;23.30;52.30;;;;;;5046515;28;20210;-77
2023/08/12 11:34:37;;;;;;;3.03;1.27;;;23.30;52.30;;;;;;5031209;28;20565;-76
2023/08/12 11:37:03;;;;;;;1.30;1.10;;;23.30;52.30;;;;;;5029295;28;20442;-76
2023/08/12 11:39:29;;;;;;;1.80;1.13;;;23.30;53.00;;;;;;5030260;28;20221;-76
2023/08/12 11:41:55;;;;;;;1.20;1.10;;;23.30;52.30;;;;;;5029360;28;20450;-76
2023/08/12 11:44:22;;;;;;;1.03;0.93;;;23.30;52.30;;;;;;5047086;28;20210;-77
2023/08/12 11:46:48;;;;;;;1.87;1.20;;;23.30;52.30;;;;;;5043020;28;20566;-76
2023/08/12 11:49:14;;;;;;;1.20;1.10;;;23.30;53.00;;;;;;5025798;28;20477;-77
2023/08/12 11:51:41;;;;;;;1.13;1.03;;;23.30;52.80;;;;;;5040279;28;20514;-76
2023/08/12 11:54:07;;;;;;;1.20;1.10;;;23.40;52.30;;;;;;5046769;28;20685;-75
2023/08/12 11:56:33;;;;;;;1.20;1.10;;;23.30;52.30;;;;;;5027565;28;20443;-76
2023/08/12 11:58:59;;;;;;;1.20;1.10;;;23.30;52.30;;;;;;5041190;28;20313;-75
2023/08/12 12:01:25;;;;;;;1.40;1.30;;;23.40;52.40;;;;;;5042995;28;20230;-77
2023/08/12 12:03:51;;;;;;;0.90;0.90;;;23.30;52.30;;;;;;5025036;28;20452;-75
2023/08/12 12:06:17;;;;;;;1.20;0.97;;;23.30;52.40;;;;;;5042359;28;20217;-75
2023/08/12 12:08:46;;;;;;;1.50;1.07;;;23.30;52.30;;;;;;5044779;28;20508;-75
2023/08/12 12:11:13;;;;;;;1.17;1.07;;;23.30;52.30;;;;;;5043854;28;20691;-74
2023/08/12 12:13:39;;;;;;;1.27;1.17;;;23.30;52.40;;;;;;5033196;28;20462;-75
2023/08/12 12:16:10;;;;;;;1.10;1.00;;;23.30;52.30;;;;;;5020226;28;20506;-75
2023/08/12 12:18:39;;;;;;;1.00;0.90;;;23.30;52.40;;;;;;5020853;28;20634;-75
2023/08/12 12:21:04;;;;;;;1.10;1.00;;;23.30;52.40;;;;;;5039318;28;20459;-76
2023/08/12 12:23:31;;;;;;;1.90;1.00;;;23.30;52.50;;;;;;5039820;28;20520;-76
2023/08/12 12:26:01;;;;;;;2.13;1.30;;;23.30;52.40;;;;;;5038312;28;20218;-76
2023/08/12 12:28:27;;;;;;;1.00;1.00;;;23.30;52.40;;;;;;5041306;28;20553;-76
2023/08/12 12:30:53;;;;;;;1.13;1.03;;;23.30;52.40;;;;;;5032548;28;20516;-77
2023/08/12 12:33:18;;;;;;;1.20;1.10;;;23.30;52.40;;;;;;5039840;28;20623;-78
2023/08/12 12:35:44;;;;;;;1.17;1.07;;;23.30;52.40;;;;;;5036874;28;20727;-75
2023/08/12 12:38:09;;;;;;;0.90;0.90;;;23.30;52.50;;;;;;5040712;28;20221;-76
2023/08/12 12:40:35;;;;;;;1.20;1.10;;;23.30;52.50;;;;;;5041129;28;20237;-78
2023/08/12 12:43:02;;;;;;;1.07;1.03;;;23.30;52.50;;;;;;5041692;28;20226;-78